Time;durP1;ratioP1;P1;durP2;ratioP2;P2;SDS_P1;SDS_P2;PMS_P1;PMS_P2;Temp;Humidity;BMP_temperature;BMP_pressure;BME280_temperature;BME280_humidity;BME280_pressure;Samples;Min_cycle;Max_cycle;Signal;HPM_P1;HPM_P2
2021/04/13 00:00:48;;;;;;;;;;;19.80;56.70;;;;;;5051250;28;1714;-69
2021/04/13 00:03:13;;;;;;;;;;;19.80;56.70;;;;;;5052446;28;1653;-71
2021/04/13 00:05:40;;;;;;;;;;;19.80;56.70;;;;;;5052460;28;1692;-69
2021/04/13 00:08:07;;;;;;;;;;;19.80;56.70;;;;;;5030808;28;1978;-69
2021/04/13 00:10:53;;;;;;;;;;;19.80;56.70;;;;;;5051743;28;1735;-69
2021/04/13 00:13:18;;;;;;;;;;;19.80;56.80;;;;;;5050924;28;1282;-69
2021/04/13 00:15:54;;;;;;;;;;;19.80;56.80;;;;;;5042448;28;1391;-70
2021/04/13 00:18:23;;;;;;;;;;;19.80;56.80;;;;;;5050569;28;1577;-69
2021/04/13 00:20:55;;;;;;;;;;;19.70;56.80;;;;;;5056539;28;1669;-69
2021/04/13 00:23:20;;;;;;;;;;;19.70;56.70;;;;;;5056363;28;1218;-70
2021/04/13 00:25:53;;;;;;;;;;;19.70;56.80;;;;;;5055334;28;1899;-68
2021/04/13 00:28:19;;;;;;;;;;;19.70;56.80;;;;;;5054528;28;1959;-69
2021/04/13 00:30:46;;;;;;;;;;;19.70;56.80;;;;;;5056432;28;1657;-69
2021/04/13 00:33:15;;;;;;;;;;;19.70;56.80;;;;;;5055176;28;1668;-67
2021/04/13 00:35:46;;;;;;;;;;;19.70;56.80;;;;;;5055380;28;1397;-68
2021/04/13 00:38:13;;;;;;;;;;;19.70;56.90;;;;;;5054766;28;1229;-68
2021/04/13 00:40:38;;;;;;;;;;;19.70;56.80;;;;;;5055053;28;1397;-67
2021/04/13 00:43:04;;;;;;;;;;;19.70;56.90;;;;;;5056006;28;1376;-68
2021/04/13 00:45:34;;;;;;;;;;;19.70;56.90;;;;;;5054931;28;1681;-68
2021/04/13 00:48:00;;;;;;;;;;;19.70;56.90;;;;;;5054318;28;1648;-69
2021/04/13 00:50:28;;;;;;;;;;;19.70;56.90;;;;;;5054711;28;1906;-68
2021/04/13 00:52:54;;;;;;;;;;;19.70;56.90;;;;;;5054701;28;1633;-68
2021/04/13 00:55:20;;;;;;;;;;;19.70;56.90;;;;;;5054639;28;1398;-68
2021/04/13 00:57:46;;;;;;;;;;;19.70;56.90;;;;;;5054268;28;1705;-68
2021/04/13 01:00:15;;;;;;;;;;;19.70;57.00;;;;;;5055892;28;1223;-68
2021/04/13 01:02:40;;;;;;;;;;;19.70;57.00;;;;;;5054488;28;1380;-68
2021/04/13 01:05:12;;;;;;;;;;;19.70;57.00;;;;;;5054638;28;1693;-68
2021/04/13 01:07:47;;;;;;;;;;;19.70;57.00;;;;;;5053960;28;1648;-67
2021/04/13 01:10:14;;;;;;;;;;;19.70;57.00;;;;;;5055533;28;1965;-67
2021/04/13 01:12:41;;;;;;;;;;;19.70;57.00;;;;;;5052895;28;1162;-69
2021/04/13 01:15:08;;;;;;;;;;;19.70;57.00;;;;;;5053652;28;1413;-67
2021/04/13 01:17:34;;;;;;;;;;;19.70;57.00;;;;;;5053715;28;1684;-67
2021/04/13 01:19:59;;;;;;;;;;;19.70;57.00;;;;;;5054021;28;1462;-67
2021/04/13 01:23:13;;;;;;;;;;;19.70;57.10;;;;;;5055255;28;1363;-67
2021/04/13 01:25:19;;;;;;;;;;;19.70;57.10;;;;;;5049684;28;1583;-67
2021/04/13 01:27:48;;;;;;;;;;;19.70;57.10;;;;;;5054705;28;1473;-68
2021/04/13 01:30:14;;;;;;;;;;;19.70;57.10;;;;;;5052257;28;2577;-67
2021/04/13 01:32:39;;;;;;;;;;;19.70;57.10;;;;;;5054550;28;1395;-67
2021/04/13 01:35:11;;;;;;;;;;;19.60;57.00;;;;;;5054629;28;1666;-67
2021/04/13 01:37:50;;;;;;;;;;;19.60;57.00;;;;;;5053452;28;1374;-67
2021/04/13 01:40:23;;;;;;;;;;;19.70;57.10;;;;;;5055202;28;1336;-67
2021/04/13 01:42:48;;;;;;;;;;;19.60;57.00;;;;;;5053771;28;1500;-66
2021/04/13 01:45:15;;;;;;;;;;;19.60;57.00;;;;;;5053631;28;1410;-67
2021/04/13 01:47:41;;;;;;;;;;;19.70;57.10;;;;;;5053081;28;1519;-68
2021/04/13 01:50:07;;;;;;;;;;;19.70;57.00;;;;;;5053547;28;1910;-68
2021/04/13 01:52:36;;;;;;;;;;;19.70;57.00;;;;;;5053195;28;1398;-68
2021/04/13 01:55:09;;;;;;;;;;;19.70;57.00;;;;;;5054448;28;1643;-69
2021/04/13 01:57:38;;;;;;;;;;;19.70;56.90;;;;;;5052153;28;1434;-68
2021/04/13 02:00:11;;;;;;;;;;;19.70;56.90;;;;;;5052525;28;1480;-67
2021/04/13 02:02:44;;;;;;;;;;;19.70;56.90;;;;;;5053304;28;870;-67
2021/04/13 02:05:10;;;;;;;;;;;19.70;56.90;;;;;;5051609;28;1686;-67
2021/04/13 02:07:47;;;;;;;;;;;19.70;56.80;;;;;;5042540;28;1652;-67
2021/04/13 02:10:20;;;;;;;;;;;19.70;56.80;;;;;;5053331;28;1906;-68
2021/04/13 02:12:46;;;;;;;;;;;19.70;56.80;;;;;;5052548;28;1410;-67
2021/04/13 02:15:20;;;;;;;;;;;19.80;56.90;;;;;;5052726;28;1455;-67
2021/04/13 02:17:53;;;;;;;;;;;19.80;56.80;;;;;;5052225;28;1639;-67
2021/04/13 02:20:20;;;;;;;;;;;19.70;56.80;;;;;;5052852;28;1515;-66
2021/04/13 02:22:45;;;;;;;;;;;19.80;56.80;;;;;;5052338;28;1591;-68
2021/04/13 02:25:11;;;;;;;;;;;19.80;56.80;;;;;;5052508;28;1223;-68
2021/04/13 02:27:40;;;;;;;;;;;19.80;56.80;;;;;;5053615;28;1388;-67
2021/04/13 02:30:10;;;;;;;;;;;19.80;56.80;;;;;;5032562;28;1906;-68
2021/04/13 02:32:38;;;;;;;;;;;19.80;56.80;;;;;;5039520;28;1239;-68
2021/04/13 02:35:04;;;;;;;;;;;19.80;56.80;;;;;;5044489;28;1562;-68
2021/04/13 02:37:38;;;;;;;;;;;19.80;56.70;;;;;;5043833;28;1302;-68
2021/04/13 02:40:23;;;;;;;;;;;19.80;56.70;;;;;;5067580;28;1235;-68
2021/04/13 02:42:50;;;;;;;;;;;19.80;56.60;;;;;;5036057;28;1225;-68
2021/04/13 02:45:41;;;;;;;;;;;20.00;56.50;;;;;;5053355;28;1192;-68
2021/04/13 02:48:15;;;;;;;;;;;20.00;56.40;;;;;;5038872;28;1193;-68
2021/04/13 02:50:42;;;;;;;;;;;20.20;56.10;;;;;;5052508;28;1478;-68
2021/04/13 02:53:08;;;;;;;;;;;20.30;55.90;;;;;;5052563;28;1373;-68
2021/04/13 02:55:34;;;;;;;;;;;20.40;55.70;;;;;;5053698;28;1481;-68
2021/04/13 02:58:01;;;;;;;;;;;20.50;55.40;;;;;;5051851;28;1278;-68
2021/04/13 03:00:46;;;;;;;;;;;20.60;55.20;;;;;;5051974;28;1115;-68
2021/04/13 03:03:19;;;;;;;;;;;20.80;55.10;;;;;;5051572;28;1137;-69
2021/04/13 03:05:46;;;;;;;;;;;20.80;54.70;;;;;;5053275;28;1139;-68
2021/04/13 03:08:12;;;;;;;;;;;20.90;54.60;;;;;;5051595;28;1957;-68
2021/04/13 03:10:38;;;;;;;;;;;21.00;54.40;;;;;;5052098;28;1102;-68
2021/04/13 03:13:08;;;;;;;;;;;21.00;54.30;;;;;;5051619;28;1166;-68
2021/04/13 03:15:34;;;;;;;;;;;21.10;54.20;;;;;;5052108;28;1032;-68
2021/04/13 03:18:00;;;;;;;;;;;21.10;54.10;;;;;;5052699;28;1371;-68
2021/04/13 03:20:26;;;;;;;;;;;21.20;54.00;;;;;;5051988;28;1297;-68
2021/04/13 03:22:53;;;;;;;;;;;21.20;53.90;;;;;;5052083;28;1063;-68
2021/04/13 03:25:18;;;;;;;;;;;21.30;53.80;;;;;;5052981;28;1210;-68
2021/04/13 03:27:43;;;;;;;;;;;21.30;53.70;;;;;;5051165;28;1263;-68
2021/04/13 03:30:14;;;;;;;;;;;21.30;53.70;;;;;;5051691;28;1961;-69
2021/04/13 03:32:40;;;;;;;;;;;21.30;53.60;;;;;;5051436;28;1115;-68
2021/04/13 03:35:06;;;;;;;;;;;21.40;53.60;;;;;;5051735;28;1095;-68
2021/04/13 03:37:32;;;;;;;;;;;21.40;53.60;;;;;;5052326;28;1349;-68
2021/04/13 03:39:57;;;;;;;;;;;21.40;53.60;;;;;;5051437;28;1317;-68
2021/04/13 03:42:26;;;;;;;;;;;21.40;53.60;;;;;;5051315;28;1245;-68
2021/04/13 03:44:52;;;;;;;;;;;21.40;53.60;;;;;;5031668;28;1072;-68
2021/04/13 03:47:18;;;;;;;;;;;21.40;53.60;;;;;;5045873;28;1283;-68
2021/04/13 03:49:44;;;;;;;;;;;21.40;53.60;;;;;;5031531;28;1898;-68
2021/04/13 03:52:14;;;;;;;;;;;21.40;53.60;;;;;;5045530;28;1166;-68
2021/04/13 03:54:39;;;;;;;;;;;21.40;53.70;;;;;;5059012;28;1189;-68
2021/04/13 03:57:05;;;;;;;;;;;21.40;53.70;;;;;;5057733;28;1376;-68
2021/04/13 03:59:31;;;;;;;;;;;21.40;53.70;;;;;;5058031;28;1060;-68
2021/04/13 04:01:56;;;;;;;;;;;21.40;53.70;;;;;;5059177;28;1051;-68
2021/04/13 04:04:23;;;;;;;;;;;21.40;53.80;;;;;;5058019;28;1321;-68
2021/04/13 04:06:58;;;;;;;;;;;21.30;54.40;;;;;;5057885;28;1338;-68
2021/04/13 04:09:29;;;;;;;;;;;21.30;53.80;;;;;;5057657;28;1963;-69
2021/04/13 04:11:55;;;;;;;;;;;21.30;53.90;;;;;;5059275;28;1107;-69
2021/04/13 04:14:22;;;;;;;;;;;21.30;53.90;;;;;;5057954;28;1088;-69
2021/04/13 04:16:47;;;;;;;;;;;21.30;54.00;;;;;;5057757;28;1284;-68
2021/04/13 04:19:14;;;;;;;;;;;21.30;54.00;;;;;;5057596;28;1159;-69
2021/04/13 04:21:57;;;;;;;;;;;21.20;54.00;;;;;;5057821;28;1099;-68
2021/04/13 04:24:26;;;;;;;;;;;21.20;54.00;;;;;;5058000;28;1138;-68
2021/04/13 04:26:54;;;;;;;;;;;21.20;54.10;;;;;;5059136;28;1376;-68
2021/04/13 04:29:21;;;;;;;;;;;21.20;54.10;;;;;;5058718;28;1903;-68
2021/04/13 04:31:46;;;;;;;;;;;21.20;54.20;;;;;;5037760;28;1135;-68
2021/04/13 04:34:15;;;;;;;;;;;21.20;54.30;;;;;;5050708;28;1150;-68
2021/04/13 04:36:44;;;;;;;;;;;21.20;54.30;;;;;;5058974;28;1302;-68
2021/04/13 04:39:28;;;;;;;;;;;21.10;54.30;;;;;;5057433;28;1152;-68
2021/04/13 04:41:55;;;;;;;;;;;21.10;54.40;;;;;;5058909;28;1127;-69
2021/04/13 04:44:24;;;;;;;;;;;21.10;54.40;;;;;;5059054;28;1090;-68
2021/04/13 04:46:49;;;;;;;;;;;21.10;54.50;;;;;;5058720;28;1358;-68
2021/04/13 04:49:16;;;;;;;;;;;21.10;54.60;;;;;;5058821;28;1914;-68
2021/04/13 04:51:41;;;;;;;;;;;21.00;54.50;;;;;;5057625;28;1126;-69
2021/04/13 04:54:07;;;;;;;;;;;21.00;54.60;;;;;;5058855;28;1106;-68
2021/04/13 04:56:33;;;;;;;;;;;21.00;54.60;;;;;;5057827;28;1143;-68
2021/04/13 04:58:58;;;;;;;;;;;21.00;54.70;;;;;;5057188;28;1249;-69
2021/04/13 05:01:23;;;;;;;;;;;21.00;54.70;;;;;;5058512;28;1071;-68
2021/04/13 05:03:49;;;;;;;;;;;21.00;54.70;;;;;;5056923;28;1111;-68
2021/04/13 05:06:14;;;;;;;;;;;21.00;54.70;;;;;;5053349;28;1189;-69
2021/04/13 05:08:40;;;;;;;;;;;20.90;54.70;;;;;;5053819;28;1875;-68
2021/04/13 05:11:05;;;;;;;;;;;20.90;54.70;;;;;;5054777;28;1254;-68
2021/04/13 05:13:31;;;;;;;;;;;20.90;54.70;;;;;;5054106;28;1143;-68
2021/04/13 05:15:57;;;;;;;;;;;20.90;54.80;;;;;;5054067;28;1036;-68
2021/04/13 05:18:22;;;;;;;;;;;20.90;54.80;;;;;;5053692;28;1337;-68
2021/04/13 05:20:48;;;;;;;;;;;21.00;54.80;;;;;;5055395;28;1118;-69
2021/04/13 05:23:13;;;;;;;;;;;21.00;54.80;;;;;;5055219;28;1186;-69
2021/04/13 05:25:39;;;;;;;;;;;20.90;54.80;;;;;;5055263;28;1083;-68
2021/04/13 05:28:04;;;;;;;;;;;21.00;54.80;;;;;;5054773;28;1212;-68
2021/04/13 05:30:30;;;;;;;;;;;20.90;54.80;;;;;;5054837;28;1923;-68
2021/04/13 05:32:55;;;;;;;;;;;21.00;54.90;;;;;;5050803;28;1169;-67
2021/04/13 05:35:20;;;;;;;;;;;20.90;54.80;;;;;;5045295;28;2204;-67
2021/04/13 05:37:48;;;;;;;;;;;20.90;54.80;;;;;;5045992;28;1225;-67
2021/04/13 05:40:15;;;;;;;;;;;21.00;54.90;;;;;;5054663;28;1246;-67
2021/04/13 05:42:41;;;;;;;;;;;20.90;54.80;;;;;;5047992;28;1871;-65
2021/04/13 05:45:06;;;;;;;;;;;20.90;54.80;;;;;;5052216;28;1101;-65
2021/04/13 05:47:36;;;;;;;;;;;20.90;54.90;;;;;;5052548;28;1302;-65
2021/04/13 05:50:01;;;;;;;;;;;20.90;54.90;;;;;;5053394;28;1909;-65
2021/04/13 05:52:27;;;;;;;;;;;20.90;54.90;;;;;;5052948;28;1099;-65
2021/04/13 05:54:52;;;;;;;;;;;20.90;54.90;;;;;;5054558;28;1131;-66
2021/04/13 05:57:23;;;;;;;;;;;20.90;55.00;;;;;;5054250;28;1292;-66
2021/04/13 05:59:50;;;;;;;;;;;20.90;55.00;;;;;;5054249;28;1126;-66
2021/04/13 06:02:16;;;;;;;;;;;20.80;55.00;;;;;;5053309;28;1268;-69
2021/04/13 06:04:42;;;;;;;;;;;20.90;55.10;;;;;;5053092;28;1064;-69
2021/04/13 06:07:07;;;;;;;;;;;20.80;55.00;;;;;;5054554;28;1369;-69
2021/04/13 06:09:32;;;;;;;;;;;20.80;55.10;;;;;;5054231;28;1977;-67
2021/04/13 06:11:59;;;;;;;;;;;20.80;55.00;;;;;;5054123;28;1122;-68
2021/04/13 06:14:25;;;;;;;;;;;20.80;55.00;;;;;;5054100;28;1150;-68
2021/04/13 06:16:51;;;;;;;;;;;20.80;55.10;;;;;;5052752;28;1375;-68
2021/04/13 06:19:16;;;;;;;;;;;20.80;55.20;;;;;;5053957;28;1071;-67
2021/04/13 06:21:42;;;;;;;;;;;20.70;55.10;;;;;;5054183;28;1178;-68
2021/04/13 06:24:09;;;;;;;;;;;20.70;55.20;;;;;;5052998;28;1190;-69
2021/04/13 06:26:34;;;;;;;;;;;20.70;55.20;;;;;;5054082;28;1075;-69
2021/04/13 06:28:59;;;;;;;;;;;20.70;55.20;;;;;;5053178;28;1899;-69
2021/04/13 06:31:25;;;;;;;;;;;20.70;55.30;;;;;;5054153;28;1201;-69
2021/04/13 06:33:50;;;;;;;;;;;20.70;55.30;;;;;;5052696;28;1052;-69
2021/04/13 06:36:16;;;;;;;;;;;20.70;55.90;;;;;;5053872;28;1193;-69
2021/04/13 06:38:42;;;;;;;;;;;20.70;55.40;;;;;;5052244;28;1173;-68
2021/04/13 06:41:16;;;;;;;;;;;20.70;55.40;;;;;;5053719;28;1046;-68
2021/04/13 06:43:45;;;;;;;;;;;20.70;55.40;;;;;;5032783;28;1080;-68
2021/04/13 06:46:29;;;;;;;;;;;20.70;55.40;;;;;;5044453;28;1052;-66
2021/04/13 06:48:54;;;;;;;;;;;20.70;55.50;;;;;;5036395;28;1910;-67
2021/04/13 06:51:38;;;;;;;;;;;20.70;55.50;;;;;;5053487;28;1170;-66
2021/04/13 06:54:06;;;;;;;;;;;20.60;55.40;;;;;;5053469;28;1091;-67
2021/04/13 06:56:35;;;;;;;;;;;20.60;55.50;;;;;;5053258;28;1161;-69
2021/04/13 06:59:04;;;;;;;;;;;20.60;55.50;;;;;;5052794;28;1305;-69
2021/04/13 07:01:30;;;;;;;;;;;20.60;55.60;;;;;;5052276;28;1434;-70
2021/04/13 07:03:58;;;;;;;;;;;20.60;55.60;;;;;;5052096;28;1170;-70
2021/04/13 07:06:26;;;;;;;;;;;20.60;55.60;;;;;;5040191;28;1233;-70
2021/04/13 07:08:57;;;;;;;;;;;20.60;55.60;;;;;;5051859;28;1902;-70
2021/04/13 07:11:29;;;;;;;;;;;20.60;55.70;;;;;;5052278;28;1069;-70
2021/04/13 07:13:58;;;;;;;;;;;20.60;55.70;;;;;;5048976;28;2230;-68
2021/04/13 07:16:31;;;;;;;;;;;20.60;55.70;;;;;;5050909;28;1215;-70
2021/04/13 07:19:06;;;;;;;;;;;20.50;55.70;;;;;;5051447;28;1321;-70
2021/04/13 07:21:36;;;;;;;;;;;20.50;55.70;;;;;;5049420;28;1210;-70
2021/04/13 07:24:07;;;;;;;;;;;20.50;55.70;;;;;;5053132;28;1104;-67
2021/04/13 07:26:35;;;;;;;;;;;20.50;55.80;;;;;;5052974;28;1111;-66
2021/04/13 07:29:13;;;;;;;;;;;20.50;55.80;;;;;;5050755;28;1956;-67
2021/04/13 07:31:41;;;;;;;;;;;20.50;55.80;;;;;;5046309;28;1143;-66
2021/04/13 07:34:06;;;;;;;;;;;20.50;55.90;;;;;;5051715;28;1082;-66
2021/04/13 07:36:34;;;;;;;;;;;20.50;55.90;;;;;;5051568;28;1060;-67
2021/04/13 07:38:59;;;;;;;;;;;20.40;55.90;;;;;;5051176;28;1342;-66
2021/04/13 07:41:26;;;;;;;;;;;20.40;55.90;;;;;;5052570;28;1261;-67
2021/04/13 07:43:57;;;;;;;;;;;20.40;55.90;;;;;;5051132;28;1103;-66
2021/04/13 07:46:30;;;;;;;;;;;20.40;56.00;;;;;;5051513;28;1127;-68
2021/04/13 07:49:15;;;;;;;;;;;20.40;56.00;;;;;;5050986;28;1890;-66
2021/04/13 07:51:42;;;;;;;;;;;20.40;56.00;;;;;;5052814;28;1146;-66
2021/04/13 07:54:27;;;;;;;;;;;20.40;56.00;;;;;;5051171;28;1075;-66
2021/04/13 07:56:54;;;;;;;;;;;20.40;56.00;;;;;;5052527;28;1233;-66
2021/04/13 07:59:35;;;;;;;;;;;20.40;56.10;;;;;;5034321;28;1107;-67
2021/04/13 08:02:00;;;;;;;;;;;20.40;56.10;;;;;;5052405;28;1234;-68
2021/04/13 08:04:27;;;;;;;;;;;20.40;56.10;;;;;;5051241;28;1111;-66
2021/04/13 08:07:12;;;;;;;;;;;20.40;56.10;;;;;;5037793;28;1365;-67
2021/04/13 08:09:42;;;;;;;;;;;20.40;56.20;;;;;;5052012;28;1957;-67
2021/04/13 08:12:15;;;;;;;;;;;20.30;56.10;;;;;;5031180;28;1659;-67
2021/04/13 08:14:43;;;;;;;;;;;20.40;56.20;;;;;;5045155;28;1083;-67
2021/04/13 08:17:15;;;;;;;;;;;20.30;56.20;;;;;;5050853;28;1228;-67
2021/04/13 08:19:40;;;;;;;;;;;20.30;56.20;;;;;;5052324;28;1138;-67
2021/04/13 08:22:07;;;;;;;;;;;20.30;56.20;;;;;;5051214;28;1006;-67
2021/04/13 08:24:52;;;;;;;;;;;20.30;56.20;;;;;;5052188;28;1080;-67
2021/04/13 08:27:22;;;;;;;;;;;20.30;56.20;;;;;;5052096;28;1365;-69
2021/04/13 08:29:49;;;;;;;;;;;20.30;56.20;;;;;;5050865;28;1903;-68
2021/04/13 08:35:13;;;;;;;;;;;20.30;56.30;;;;;;5052633;28;1221;-67
2021/04/13 08:37:52;;;;;;;;;;;20.30;56.30;;;;;;5052018;28;1361;-67
2021/04/13 08:40:24;;;;;;;;;;;20.30;56.30;;;;;;5052463;28;1159;-67
2021/04/13 08:42:52;;;;;;;;;;;20.30;56.30;;;;;;5055980;28;1135;-69
2021/04/13 08:45:36;;;;;;;;;;;20.30;56.40;;;;;;5054878;28;1032;-70
2021/04/13 08:48:05;;;;;;;;;;;20.30;56.40;;;;;;5055338;28;1273;-69
2021/04/13 08:50:36;;;;;;;;;;;20.20;56.30;;;;;;5054165;28;1959;-69
2021/04/13 08:53:06;;;;;;;;;;;20.30;56.40;;;;;;5055566;28;1091;-69
2021/04/13 08:55:35;;;;;;;;;;;20.20;56.40;;;;;;5054293;28;1111;-70
2021/04/13 08:58:19;;;;;;;;;;;20.20;56.40;;;;;;5055139;28;1304;-69
2021/04/13 09:00:46;;;;;;;;;;;20.20;56.40;;;;;;5054453;28;1075;-70
2021/04/13 09:03:12;;;;;;;;;;;20.20;56.40;;;;;;5055528;28;1146;-69
2021/04/13 09:05:39;;;;;;;;;;;20.30;56.40;;;;;;5055900;28;1106;-70
2021/04/13 09:08:23;;;;;;;;;;;20.20;56.40;;;;;;5037460;28;1331;-70
2021/04/13 09:10:54;;;;;;;;;;;20.20;56.40;;;;;;5055678;28;1115;-70
2021/04/13 09:13:22;;;;;;;;;;;20.20;56.40;;;;;;5055133;28;1110;-69
2021/04/13 09:15:50;;;;;;;;;;;20.30;56.40;;;;;;5055485;28;1075;-70
2021/04/13 09:18:17;;;;;;;;;;;20.20;56.40;;;;;;5053727;28;1369;-70
2021/04/13 09:20:44;;;;;;;;;;;20.20;56.40;;;;;;5054145;28;1146;-70
2021/04/13 09:23:11;;;;;;;;;;;20.20;56.40;;;;;;5036491;28;1666;-68
2021/04/13 09:25:42;;;;;;;;;;;20.20;56.40;;;;;;5053932;28;1185;-70
2021/04/13 09:28:09;;;;;;;;;;;20.20;56.50;;;;;;5054607;28;1404;-70
2021/04/13 09:30:39;;;;;;;;;;;20.20;56.50;;;;;;5054018;28;1965;-70
2021/04/13 09:33:12;;;;;;;;;;;20.20;56.50;;;;;;5053865;28;1179;-70
2021/04/13 09:35:43;;;;;;;;;;;20.20;56.50;;;;;;5053917;28;1087;-70
2021/04/13 09:38:33;;;;;;;;;;;20.20;56.50;;;;;;5054486;28;1287;-69
2021/04/13 09:41:07;;;;;;;;;;;20.20;56.50;;;;;;5053914;28;1215;-70
2021/04/13 09:43:53;;;;;;;;;;;20.20;56.50;;;;;;5053816;28;1107;-70
2021/04/13 09:46:38;;;;;;;;;;;20.20;56.60;;;;;;5053760;28;1108;-70
2021/04/13 09:49:14;;;;;;;;;;;20.20;56.60;;;;;;5083443;22;1957;-68
2021/04/13 09:51:54;;;;;;;;;;;20.10;56.50;;;;;;5051071;28;930;-68
2021/04/13 09:54:29;;;;;;;;;;;20.10;56.50;;;;;;5056878;28;1210;-68
2021/04/13 09:56:54;;;;;;;;;;;20.10;56.50;;;;;;5074881;28;1134;-67
2021/04/13 09:59:20;;;;;;;;;;;20.20;56.60;;;;;;5073999;28;1361;-68
2021/04/13 10:02:11;;;;;;;;;;;20.10;56.60;;;;;;5074536;28;1052;-68
2021/04/13 10:04:52;;;;;;;;;;;20.10;56.60;;;;;;5050655;28;1177;-68
2021/04/13 10:07:18;;;;;;;;;;;20.10;56.50;;;;;;5057180;28;1129;-68
2021/04/13 10:09:43;;;;;;;;;;;20.10;56.50;;;;;;5074035;28;1894;-68
2021/04/13 10:12:12;;;;;;;;;;;20.10;55.70;;;;;;5056592;28;1135;-68
2021/04/13 10:14:42;;;;;;;;;;;20.10;55.90;;;;;;5073975;28;1177;-67
2021/04/13 10:17:30;;;;;;;;;;;20.20;56.20;;;;;;5043443;28;1081;-68
2021/04/13 10:20:22;;;;;;;;;;;20.20;55.60;;;;;;5056182;28;1130;-68
2021/04/13 10:23:05;;;;;;;;;;;20.10;55.40;;;;;;5071102;28;1243;-68
2021/04/13 10:25:31;;;;;;;;;;;20.10;55.60;;;;;;5074178;28;1095;-69
2021/04/13 10:28:15;;;;;;;;;;;20.10;55.70;;;;;;5073972;28;1267;-69
2021/04/13 10:30:55;;;;;;;;;;;20.10;55.70;;;;;;5073910;28;1965;-70
2021/04/13 10:33:47;;;;;;;;;;;20.10;55.70;;;;;;5056163;28;1136;-70
2021/04/13 10:36:22;;;;;;;;;;;20.10;55.70;;;;;;5039407;28;1440;-70
2021/04/13 10:38:47;;;;;;;;;;;20.10;55.80;;;;;;5073292;28;1274;-70
2021/04/13 10:41:20;;;;;;;;;;;20.10;55.90;;;;;;5073861;28;1103;-71
2021/04/13 10:44:07;;;;;;;;;;;20.10;55.90;;;;;;5039258;28;1524;-71
2021/04/13 10:46:40;;;;;;;;;;;20.10;56.00;;;;;;5056557;28;1071;-70
2021/04/13 10:49:51;;;;;;;;;;;20.10;56.10;;;;;;5055361;28;2249;-70
2021/04/13 10:52:25;;;;;;;;;;;20.10;56.10;;;;;;5058456;28;1168;-70
2021/04/13 10:54:56;;;;;;;;;;;20.10;56.10;;;;;;5039496;28;1192;-70
2021/04/13 10:57:42;;;;;;;;;;;20.10;56.20;;;;;;5073308;28;1197;-70
2021/04/13 11:00:26;;;;;;;;;;;20.10;56.20;;;;;;5042018;28;1269;-70
2021/04/13 11:03:10;;;;;;;;;;;20.10;56.20;;;;;;5072765;28;1268;-70
2021/04/13 11:05:41;;;;;;;;;;;20.10;56.30;;;;;;5073577;28;1146;-70
2021/04/13 11:08:25;;;;;;;;;;;20.10;56.30;;;;;;5055121;28;1343;-71
2021/04/13 11:11:09;;;;;;;;;;;20.10;56.30;;;;;;5073576;28;2332;-71
2021/04/13 11:13:35;;;;;;;;;;;20.10;56.40;;;;;;5072594;28;1154;-70
2021/04/13 11:16:19;;;;;;;;;;;20.10;56.40;;;;;;5073585;28;1111;-70
2021/04/13 11:18:48;;;;;;;;;;;20.10;56.40;;;;;;5072760;28;1418;-70
2021/04/13 11:21:29;;;;;;;;;;;20.10;56.40;;;;;;5073461;28;1102;-70
2021/04/13 11:23:54;;;;;;;;;;;20.10;56.50;;;;;;5055252;28;1401;-71
2021/04/13 11:26:22;;;;;;;;;;;20.10;56.50;;;;;;5073179;28;1086;-69
2021/04/13 11:29:02;;;;;;;;;;;20.10;56.50;;;;;;5072447;28;1957;-69
2021/04/13 11:31:31;;;;;;;;;;;20.10;56.50;;;;;;5038511;28;1191;-69
2021/04/13 11:34:02;;;;;;;;;;;20.00;56.50;;;;;;5073172;28;1094;-69
2021/04/13 11:36:30;;;;;;;;;;;20.10;56.50;;;;;;5073100;28;1178;-67
2021/04/13 11:39:00;;;;;;;;;;;20.10;56.50;;;;;;5072833;28;1311;-69
2021/04/13 11:41:44;;;;;;;;;;;20.10;56.50;;;;;;5054973;28;1092;-68
2021/04/13 11:44:30;;;;;;;;;;;20.10;56.60;;;;;;5072987;28;1123;-68
2021/04/13 11:47:03;;;;;;;;;;;20.10;56.60;;;;;;5041538;28;1210;-68
2021/04/13 11:49:42;;;;;;;;;;;20.00;56.60;;;;;;5054603;28;1902;-67
2021/04/13 11:52:15;;;;;;;;;;;20.10;56.60;;;;;;5056155;28;1198;-68
2021/04/13 11:54:47;;;;;;;;;;;20.10;56.60;;;;;;5038178;28;1424;-68
2021/04/13 11:57:14;;;;;;;;;;;20.10;56.60;;;;;;5054947;28;1143;-68
2021/04/13 11:59:39;;;;;;;;;;;20.00;56.50;;;;;;5054765;28;1266;-68
2021/04/13 12:02:18;;;;;;;;;;;20.10;56.60;;;;;;5053732;28;1993;-68
2021/04/13 12:04:44;;;;;;;;;;;20.10;56.60;;;;;;5041824;28;1114;-67
2021/04/13 12:07:10;;;;;;;;;;;20.10;56.50;;;;;;5061152;28;1210;-67
2021/04/13 12:09:45;;;;;;;;;;;20.10;56.50;;;;;;5070662;28;1910;-69
2021/04/13 12:12:29;;;;;;;;;;;20.10;56.40;;;;;;5054765;28;1029;-67
2021/04/13 12:14:54;;;;;;;;;;;20.10;56.30;;;;;;5074545;28;1090;-70
2021/04/13 12:17:34;;;;;;;;;;;20.30;56.30;;;;;;5058505;28;1393;-69
2021/04/13 12:20:18;;;;;;;;;;;20.30;56.10;;;;;;5076554;28;1448;-70
2021/04/13 12:22:43;;;;;;;;;;;20.40;56.00;;;;;;5058656;28;1181;-70
2021/04/13 12:25:31;;;;;;;;;;;20.50;55.80;;;;;;5076160;28;1130;-69
2021/04/13 12:28:07;;;;;;;;;;;20.60;55.60;;;;;;5075840;28;1255;-69
2021/04/13 12:30:50;;;;;;;;;;;20.70;55.40;;;;;;5058623;28;1957;-70
2021/04/13 12:33:25;;;;;;;;;;;20.70;55.20;;;;;;5076390;28;1107;-69
2021/04/13 12:35:53;;;;;;;;;;;20.80;55.10;;;;;;5076293;28;1075;-70
2021/04/13 12:38:37;;;;;;;;;;;20.80;55.00;;;;;;5058166;28;1201;-69
2021/04/13 12:41:10;;;;;;;;;;;20.90;54.90;;;;;;5076269;28;1142;-69
2021/04/13 12:43:46;;;;;;;;;;;20.90;54.70;;;;;;5058213;28;1139;-70
2021/04/13 12:46:23;;;;;;;;;;;21.00;54.70;;;;;;5058350;28;1295;-70
2021/04/13 12:48:49;;;;;;;;;;;21.00;54.60;;;;;;5075431;28;1917;-70
2021/04/13 12:51:16;;;;;;;;;;;21.00;54.50;;;;;;5076005;28;1142;-70
2021/04/13 12:53:42;;;;;;;;;;;21.10;54.50;;;;;;5075850;28;1036;-70
2021/04/13 12:56:08;;;;;;;;;;;21.10;54.40;;;;;;5057955;28;1107;-69
2021/04/13 12:58:36;;;;;;;;;;;21.10;54.40;;;;;;5057515;28;1371;-70
2021/04/13 13:01:01;;;;;;;;;;;21.20;54.40;;;;;;5075803;28;1059;-70
2021/04/13 13:03:30;;;;;;;;;;;21.20;54.30;;;;;;5075977;28;1095;-70
2021/04/13 13:05:55;;;;;;;;;;;21.20;54.30;;;;;;5075832;28;1177;-70
2021/04/13 13:08:24;;;;;;;;;;;21.20;54.30;;;;;;5057211;28;1225;-70
2021/04/13 13:10:51;;;;;;;;;;;21.20;54.30;;;;;;5058092;28;1956;-69
2021/04/13 13:13:25;;;;;;;;;;;21.20;54.20;;;;;;5056383;28;2034;-70
2021/04/13 13:15:52;;;;;;;;;;;21.20;54.30;;;;;;5046043;28;1108;-70
2021/04/13 13:18:19;;;;;;;;;;;21.20;54.30;;;;;;5066052;28;1395;-70
2021/04/13 13:20:45;;;;;;;;;;;21.20;54.30;;;;;;5045755;28;1143;-70
2021/04/13 13:23:24;;;;;;;;;;;21.20;54.30;;;;;;5054425;28;1112;-69
2021/04/13 13:25:50;;;;;;;;;;;21.20;54.30;;;;;;5039193;28;1249;-69
2021/04/13 13:28:19;;;;;;;;;;;21.20;54.30;;;;;;5052037;28;1278;-70
2021/04/13 13:30:45;;;;;;;;;;;21.20;54.30;;;;;;5053059;28;1943;-70
2021/04/13 13:33:11;;;;;;;;;;;21.20;54.30;;;;;;5035995;28;1199;-69
2021/04/13 13:35:36;;;;;;;;;;;21.20;54.40;;;;;;5056961;28;1171;-70
2021/04/13 13:38:02;;;;;;;;;;;21.20;54.40;;;;;;5056470;28;1331;-70
2021/04/13 13:40:32;;;;;;;;;;;21.10;54.40;;;;;;5040521;28;1305;-70
2021/04/13 13:42:57;;;;;;;;;;;21.10;54.50;;;;;;5057223;28;1139;-70
2021/04/13 13:45:27;;;;;;;;;;;21.10;54.50;;;;;;5057052;28;1131;-70
2021/04/13 13:47:52;;;;;;;;;;;21.10;54.60;;;;;;5039840;28;1271;-69
2021/04/13 13:50:20;;;;;;;;;;;21.10;54.60;;;;;;5074580;28;1937;-69
2021/04/13 13:52:46;;;;;;;;;;;21.10;54.70;;;;;;5074734;28;1213;-69
2021/04/13 13:55:21;;;;;;;;;;;21.10;54.70;;;;;;5074600;28;1035;-70
2021/04/13 13:57:59;;;;;;;;;;;21.00;54.70;;;;;;5063225;28;1841;-70
2021/04/13 14:00:43;;;;;;;;;;;21.00;54.70;;;;;;5043976;28;1888;-70
2021/04/13 14:03:18;;;;;;;;;;;21.00;54.70;;;;;;5071867;28;1633;-71
2021/04/13 14:05:46;;;;;;;;;;;21.00;54.80;;;;;;5033466;28;1838;-69
2021/04/13 14:08:13;;;;;;;;;;;21.00;54.80;;;;;;5067812;28;1511;-70
2021/04/13 14:10:39;;;;;;;;;;;21.00;54.90;;;;;;5048359;28;1902;-71
2021/04/13 14:13:19;;;;;;;;;;;21.00;54.90;;;;;;5074625;28;1587;-70
2021/04/13 14:15:46;;;;;;;;;;;21.00;54.90;;;;;;5074503;28;1371;-70
2021/04/13 14:18:20;;;;;;;;;;;21.00;54.90;;;;;;5074007;28;1855;-69
2021/04/13 14:21:04;;;;;;;;;;;21.00;54.90;;;;;;5074368;28;1171;-69
2021/04/13 14:23:30;;;;;;;;;;;21.00;54.90;;;;;;5074435;28;1861;-70
2021/04/13 14:25:55;;;;;;;;;;;21.00;54.90;;;;;;5036269;28;1719;-70
2021/04/13 14:28:21;;;;;;;;;;;21.00;54.90;;;;;;5055266;28;1718;-70
2021/04/13 14:30:46;;;;;;;;;;;21.00;55.00;;;;;;5074267;28;1890;-69
2021/04/13 14:33:12;;;;;;;;;;;21.00;55.00;;;;;;5074023;28;1736;-70
2021/04/13 14:35:38;;;;;;;;;;;21.00;54.90;;;;;;5074034;28;1738;-70
2021/04/13 14:38:07;;;;;;;;;;;21.00;54.90;;;;;;5073673;28;1408;-70
2021/04/13 14:40:33;;;;;;;;;;;21.00;54.90;;;;;;5073807;28;1355;-69
2021/04/13 14:43:00;;;;;;;;;;;21.00;54.90;;;;;;5074224;28;1626;-69
2021/04/13 14:45:27;;;;;;;;;;;21.00;54.90;;;;;;5073721;28;1079;-70
2021/04/13 14:47:53;;;;;;;;;;;21.00;54.90;;;;;;5073228;28;1371;-70
2021/04/13 14:50:19;;;;;;;;;;;21.00;54.80;;;;;;5073606;28;1902;-70
2021/04/13 14:52:48;;;;;;;;;;;21.00;54.80;;;;;;5056025;28;1166;-70